sensor_id;sensor_type;location;lat;lon;timestamp;P1;durP1;ratioP1;P2;durP2;ratioP2
46110;SDS011;31849;55.992;37.252;2023-08-21T00:03:38;5.82;;;3.72;;
46110;SDS011;31849;55.992;37.252;2023-08-21T00:08:43;6.47;;;4.37;;
46110;SDS011;31849;55.992;37.252;2023-08-21T00:13:46;6.07;;;3.97;;
46110;SDS011;31849;55.992;37.252;2023-08-21T00:18:51;5.50;;;3.38;;
46110;SDS011;31849;55.992;37.252;2023-08-21T00:23:56;6.13;;;3.90;;
46110;SDS011;31849;55.992;37.252;2023-08-21T00:28:59;6.13;;;3.50;;
46110;SDS011;31849;55.992;37.252;2023-08-21T00:34:03;6.28;;;3.72;;
46110;SDS011;31849;55.992;37.252;2023-08-21T00:39:08;6.68;;;4.25;;
46110;SDS011;31849;55.992;37.252;2023-08-21T00:44:11;7.57;;;4.57;;
46110;SDS011;31849;55.992;37.252;2023-08-21T00:49:15;8.07;;;5.22;;
46110;SDS011;31849;55.992;37.252;2023-08-21T00:54:20;9.32;;;5.45;;
46110;SDS011;31849;55.992;37.252;2023-08-21T00:59:23;8.73;;;5.50;;
46110;SDS011;31849;55.992;37.252;2023-08-21T01:04:27;10.98;;;5.95;;
46110;SDS011;31849;55.992;37.252;2023-08-21T01:09:33;11.40;;;5.70;;
46110;SDS011;31849;55.992;37.252;2023-08-21T01:14:44;9.48;;;5.75;;
46110;SDS011;31849;55.992;37.252;2023-08-21T01:19:54;9.02;;;5.55;;
46110;SDS011;31849;55.992;37.252;2023-08-21T01:25:00;9.23;;;6.00;;
46110;SDS011;31849;55.992;37.252;2023-08-21T01:30:05;10.90;;;5.78;;
46110;SDS011;31849;55.992;37.252;2023-08-21T01:35:11;8.73;;;6.07;;
46110;SDS011;31849;55.992;37.252;2023-08-21T01:40:21;10.45;;;6.10;;
46110;SDS011;31849;55.992;37.252;2023-08-21T01:45:25;9.77;;;5.90;;
46110;SDS011;31849;55.992;37.252;2023-08-21T01:50:29;11.40;;;6.10;;
46110;SDS011;31849;55.992;37.252;2023-08-21T01:55:34;9.65;;;6.72;;
46110;SDS011;31849;55.992;37.252;2023-08-21T02:00:38;8.38;;;6.07;;
46110;SDS011;31849;55.992;37.252;2023-08-21T02:05:42;9.23;;;6.05;;
46110;SDS011;31849;55.992;37.252;2023-08-21T02:10:50;8.32;;;5.55;;
46110;SDS011;31849;55.992;37.252;2023-08-21T02:15:54;9.85;;;5.47;;
46110;SDS011;31849;55.992;37.252;2023-08-21T02:21:18;11.20;;;5.35;;
46110;SDS011;31849;55.992;37.252;2023-08-21T02:26:23;8.98;;;5.50;;
46110;SDS011;31849;55.992;37.252;2023-08-21T02:31:26;9.02;;;5.32;;
46110;SDS011;31849;55.992;37.252;2023-08-21T02:36:30;7.27;;;4.80;;
46110;SDS011;31849;55.992;37.252;2023-08-21T02:41:35;9.52;;;4.38;;
46110;SDS011;31849;55.992;37.252;2023-08-21T02:46:39;6.50;;;4.00;;
46110;SDS011;31849;55.992;37.252;2023-08-21T02:51:42;7.05;;;4.05;;
46110;SDS011;31849;55.992;37.252;2023-08-21T02:56:47;5.30;;;3.90;;
46110;SDS011;31849;55.992;37.252;2023-08-21T03:01:51;5.68;;;4.07;;
46110;SDS011;31849;55.992;37.252;2023-08-21T03:06:54;7.43;;;3.80;;
46110;SDS011;31849;55.992;37.252;2023-08-21T03:11:59;4.97;;;3.50;;
46110;SDS011;31849;55.992;37.252;2023-08-21T03:17:03;4.85;;;3.80;;
46110;SDS011;31849;55.992;37.252;2023-08-21T03:22:06;10.02;;;3.85;;
46110;SDS011;31849;55.992;37.252;2023-08-21T03:27:11;7.47;;;3.70;;
46110;SDS011;31849;55.992;37.252;2023-08-21T03:32:19;6.03;;;3.75;;
46110;SDS011;31849;55.992;37.252;2023-08-21T03:37:22;6.10;;;3.93;;
46110;SDS011;31849;55.992;37.252;2023-08-21T03:42:27;4.00;;;2.80;;
46110;SDS011;31849;55.992;37.252;2023-08-21T03:47:31;4.72;;;2.67;;
46110;SDS011;31849;55.992;37.252;2023-08-21T03:52:34;5.03;;;3.30;;
46110;SDS011;31849;55.992;37.252;2023-08-21T03:57:40;4.03;;;2.80;;
46110;SDS011;31849;55.992;37.252;2023-08-21T04:02:43;5.15;;;2.60;;
46110;SDS011;31849;55.992;37.252;2023-08-21T04:07:47;3.50;;;2.67;;
46110;SDS011;31849;55.992;37.252;2023-08-21T04:12:52;3.70;;;2.70;;
46110;SDS011;31849;55.992;37.252;2023-08-21T04:17:55;4.60;;;2.20;;
46110;SDS011;31849;55.992;37.252;2023-08-21T04:22:59;3.03;;;2.25;;
46110;SDS011;31849;55.992;37.252;2023-08-21T04:28:04;3.92;;;2.00;;
46110;SDS011;31849;55.992;37.252;2023-08-21T04:33:09;2.92;;;2.10;;
46110;SDS011;31849;55.992;37.252;2023-08-21T04:38:12;6.03;;;2.80;;
46110;SDS011;31849;55.992;37.252;2023-08-21T04:43:17;3.85;;;2.15;;
46110;SDS011;31849;55.992;37.252;2023-08-21T04:48:21;3.22;;;1.88;;
46110;SDS011;31849;55.992;37.252;2023-08-21T04:53:24;3.20;;;2.10;;
46110;SDS011;31849;55.992;37.252;2023-08-21T04:58:29;3.45;;;2.15;;
46110;SDS011;31849;55.992;37.252;2023-08-21T05:03:33;2.45;;;2.00;;
46110;SDS011;31849;55.992;37.252;2023-08-21T05:08:36;2.85;;;2.10;;
46110;SDS011;31849;55.992;37.252;2023-08-21T05:13:41;2.97;;;1.90;;
46110;SDS011;31849;55.992;37.252;2023-08-21T05:18:45;2.90;;;2.10;;
46110;SDS011;31849;55.992;37.252;2023-08-21T05:23:48;2.83;;;2.00;;
46110;SDS011;31849;55.992;37.252;2023-08-21T05:28:53;2.35;;;1.88;;
46110;SDS011;31849;55.992;37.252;2023-08-21T05:33:57;2.65;;;1.98;;
46110;SDS011;31849;55.992;37.252;2023-08-21T05:39:01;3.17;;;2.10;;
46110;SDS011;31849;55.992;37.252;2023-08-21T05:44:09;3.78;;;2.10;;
46110;SDS011;31849;55.992;37.252;2023-08-21T05:49:12;4.78;;;1.98;;
46110;SDS011;31849;55.992;37.252;2023-08-21T05:54:19;3.40;;;1.90;;
46110;SDS011;31849;55.992;37.252;2023-08-21T05:59:31;2.75;;;2.00;;
46110;SDS011;31849;55.992;37.252;2023-08-21T06:04:35;3.83;;;2.10;;
46110;SDS011;31849;55.992;37.252;2023-08-21T06:09:38;3.58;;;1.95;;
46110;SDS011;31849;55.992;37.252;2023-08-21T06:14:44;2.75;;;2.00;;
46110;SDS011;31849;55.992;37.252;2023-08-21T06:19:48;3.58;;;2.22;;
46110;SDS011;31849;55.992;37.252;2023-08-21T06:24:51;2.85;;;2.10;;
46110;SDS011;31849;55.992;37.252;2023-08-21T06:30:01;4.00;;;2.00;;
46110;SDS011;31849;55.992;37.252;2023-08-21T06:35:06;3.53;;;2.10;;
46110;SDS011;31849;55.992;37.252;2023-08-21T06:40:11;3.08;;;2.10;;
46110;SDS011;31849;55.992;37.252;2023-08-21T06:45:16;3.13;;;2.03;;
46110;SDS011;31849;55.992;37.252;2023-08-21T06:50:20;3.38;;;2.10;;
46110;SDS011;31849;55.992;37.252;2023-08-21T06:55:24;3.28;;;2.05;;
46110;SDS011;31849;55.992;37.252;2023-08-21T07:00:31;3.38;;;1.90;;
46110;SDS011;31849;55.992;37.252;2023-08-21T07:05:35;4.30;;;1.90;;
46110;SDS011;31849;55.992;37.252;2023-08-21T07:10:40;2.63;;;1.70;;
46110;SDS011;31849;55.992;37.252;2023-08-21T07:15:45;2.75;;;1.60;;
46110;SDS011;31849;55.992;37.252;2023-08-21T07:20:51;4.18;;;1.88;;
46110;SDS011;31849;55.992;37.252;2023-08-21T07:25:55;3.90;;;1.70;;
46110;SDS011;31849;55.992;37.252;2023-08-21T07:31:01;5.05;;;1.80;;
46110;SDS011;31849;55.992;37.252;2023-08-21T07:36:05;4.60;;;2.00;;
46110;SDS011;31849;55.992;37.252;2023-08-21T07:41:09;4.38;;;1.73;;
46110;SDS011;31849;55.992;37.252;2023-08-21T07:46:16;3.20;;;1.80;;
46110;SDS011;31849;55.992;37.252;2023-08-21T07:51:20;2.60;;;1.77;;
46110;SDS011;31849;55.992;37.252;2023-08-21T07:56:24;3.63;;;1.90;;
46110;SDS011;31849;55.992;37.252;2023-08-21T08:01:29;2.60;;;1.85;;
46110;SDS011;31849;55.992;37.252;2023-08-21T08:06:36;2.50;;;1.60;;
46110;SDS011;31849;55.992;37.252;2023-08-21T08:11:40;3.78;;;1.63;;
46110;SDS011;31849;55.992;37.252;2023-08-21T08:16:45;3.47;;;1.70;;
46110;SDS011;31849;55.992;37.252;2023-08-21T08:21:49;5.07;;;1.95;;
46110;SDS011;31849;55.992;37.252;2023-08-21T08:26:52;4.32;;;1.90;;
46110;SDS011;31849;55.992;37.252;2023-08-21T08:31:58;2.67;;;1.40;;
46110;SDS011;31849;55.992;37.252;2023-08-21T08:37:04;2.60;;;1.60;;
46110;SDS011;31849;55.992;37.252;2023-08-21T08:42:07;3.05;;;1.88;;
46110;SDS011;31849;55.992;37.252;2023-08-21T08:47:13;5.35;;;1.80;;
46110;SDS011;31849;55.992;37.252;2023-08-21T08:52:17;2.45;;;1.50;;
46110;SDS011;31849;55.992;37.252;2023-08-21T08:57:21;2.58;;;1.63;;
46110;SDS011;31849;55.992;37.252;2023-08-21T09:02:28;5.43;;;1.90;;
46110;SDS011;31849;55.992;37.252;2023-08-21T09:07:34;3.65;;;1.90;;
46110;SDS011;31849;55.992;37.252;2023-08-21T09:12:38;2.67;;;1.80;;
46110;SDS011;31849;55.992;37.252;2023-08-21T09:17:54;3.17;;;1.70;;
46110;SDS011;31849;55.992;37.252;2023-08-21T09:22:58;4.05;;;1.55;;
46110;SDS011;31849;55.992;37.252;2023-08-21T09:28:03;3.72;;;1.67;;
46110;SDS011;31849;55.992;37.252;2023-08-21T09:33:10;2.90;;;1.73;;
46110;SDS011;31849;55.992;37.252;2023-08-21T09:38:13;3.00;;;1.50;;
46110;SDS011;31849;55.992;37.252;2023-08-21T09:48:26;2.70;;;1.50;;
46110;SDS011;31849;55.992;37.252;2023-08-21T09:53:31;4.00;;;1.85;;
46110;SDS011;31849;55.992;37.252;2023-08-21T09:58:54;2.47;;;1.60;;
46110;SDS011;31849;55.992;37.252;2023-08-21T10:03:59;3.65;;;1.58;;
46110;SDS011;31849;55.992;37.252;2023-08-21T10:09:08;2.72;;;1.70;;
46110;SDS011;31849;55.992;37.252;2023-08-21T10:14:12;3.40;;;1.60;;
46110;SDS011;31849;55.992;37.252;2023-08-21T10:19:17;3.70;;;1.92;;
46110;SDS011;31849;55.992;37.252;2023-08-21T10:24:27;3.92;;;1.60;;
46110;SDS011;31849;55.992;37.252;2023-08-21T10:29:31;2.60;;;1.67;;
46110;SDS011;31849;55.992;37.252;2023-08-21T10:34:37;3.05;;;1.70;;
46110;SDS011;31849;55.992;37.252;2023-08-21T10:39:53;3.05;;;1.80;;
46110;SDS011;31849;55.992;37.252;2023-08-21T10:44:58;3.40;;;1.50;;
46110;SDS011;31849;55.992;37.252;2023-08-21T10:50:14;2.83;;;1.60;;
46110;SDS011;31849;55.992;37.252;2023-08-21T10:55:17;3.35;;;1.73;;
46110;SDS011;31849;55.992;37.252;2023-08-21T11:00:21;3.58;;;1.90;;
46110;SDS011;31849;55.992;37.252;2023-08-21T11:05:27;4.88;;;2.53;;
46110;SDS011;31849;55.992;37.252;2023-08-21T11:10:31;2.60;;;1.60;;
46110;SDS011;31849;55.992;37.252;2023-08-21T11:20:39;2.55;;;1.50;;
46110;SDS011;31849;55.992;37.252;2023-08-21T11:25:44;2.78;;;1.42;;
46110;SDS011;31849;55.992;37.252;2023-08-21T11:30:48;4.40;;;1.88;;
46110;SDS011;31849;55.992;37.252;2023-08-21T11:35:53;3.28;;;1.90;;
46110;SDS011;31849;55.992;37.252;2023-08-21T11:40:59;18.80;;;4.60;;
46110;SDS011;31849;55.992;37.252;2023-08-21T11:46:04;4.15;;;1.50;;
46110;SDS011;31849;55.992;37.252;2023-08-21T11:51:10;5.32;;;2.15;;
46110;SDS011;31849;55.992;37.252;2023-08-21T11:56:14;4.10;;;1.75;;
46110;SDS011;31849;55.992;37.252;2023-08-21T12:01:21;2.33;;;1.48;;
46110;SDS011;31849;55.992;37.252;2023-08-21T12:06:26;3.55;;;1.60;;
46110;SDS011;31849;55.992;37.252;2023-08-21T12:11:34;4.63;;;1.40;;
46110;SDS011;31849;55.992;37.252;2023-08-21T12:16:40;4.47;;;1.42;;
46110;SDS011;31849;55.992;37.252;2023-08-21T12:21:45;3.95;;;1.63;;
46110;SDS011;31849;55.992;37.252;2023-08-21T12:26:49;3.05;;;1.70;;
46110;SDS011;31849;55.992;37.252;2023-08-21T12:31:52;4.88;;;1.60;;
46110;SDS011;31849;55.992;37.252;2023-08-21T12:36:57;2.33;;;1.67;;
46110;SDS011;31849;55.992;37.252;2023-08-21T12:42:01;4.47;;;1.45;;
46110;SDS011;31849;55.992;37.252;2023-08-21T12:47:05;2.47;;;1.55;;
46110;SDS011;31849;55.992;37.252;2023-08-21T12:52:10;2.60;;;1.50;;
46110;SDS011;31849;55.992;37.252;2023-08-21T12:57:14;3.85;;;1.70;;
46110;SDS011;31849;55.992;37.252;2023-08-21T13:02:18;3.30;;;1.65;;
46110;SDS011;31849;55.992;37.252;2023-08-21T13:07:23;2.72;;;1.52;;
46110;SDS011;31849;55.992;37.252;2023-08-21T13:12:27;4.60;;;1.80;;
46110;SDS011;31849;55.992;37.252;2023-08-21T13:17:30;2.47;;;1.60;;
46110;SDS011;31849;55.992;37.252;2023-08-21T13:22:45;2.83;;;1.50;;
46110;SDS011;31849;55.992;37.252;2023-08-21T13:27:51;3.22;;;1.58;;
46110;SDS011;31849;55.992;37.252;2023-08-21T13:32:56;5.30;;;1.77;;
46110;SDS011;31849;55.992;37.252;2023-08-21T13:38:03;4.45;;;1.70;;
46110;SDS011;31849;55.992;37.252;2023-08-21T13:43:07;2.80;;;1.52;;
46110;SDS011;31849;55.992;37.252;2023-08-21T13:48:14;3.67;;;1.83;;
46110;SDS011;31849;55.992;37.252;2023-08-21T13:53:19;3.30;;;1.40;;
46110;SDS011;31849;55.992;37.252;2023-08-21T13:58:22;2.45;;;1.50;;
46110;SDS011;31849;55.992;37.252;2023-08-21T14:03:26;2.95;;;1.58;;
46110;SDS011;31849;55.992;37.252;2023-08-21T14:08:31;2.83;;;1.30;;
46110;SDS011;31849;55.992;37.252;2023-08-21T14:13:34;4.32;;;1.45;;
46110;SDS011;31849;55.992;37.252;2023-08-21T14:18:38;3.08;;;1.60;;
46110;SDS011;31849;55.992;37.252;2023-08-21T14:23:43;6.13;;;2.22;;
46110;SDS011;31849;55.992;37.252;2023-08-21T14:28:46;4.30;;;1.50;;
46110;SDS011;31849;55.992;37.252;2023-08-21T14:33:52;8.00;;;1.70;;
46110;SDS011;31849;55.992;37.252;2023-08-21T14:38:57;5.30;;;1.88;;
46110;SDS011;31849;55.992;37.252;2023-08-21T14:44:02;4.25;;;2.13;;
46110;SDS011;31849;55.992;37.252;2023-08-21T14:49:07;5.55;;;1.52;;
46110;SDS011;31849;55.992;37.252;2023-08-21T14:54:20;3.35;;;1.60;;
46110;SDS011;31849;55.992;37.252;2023-08-21T14:59:24;3.20;;;1.70;;
46110;SDS011;31849;55.992;37.252;2023-08-21T15:04:27;5.53;;;1.58;;
46110;SDS011;31849;55.992;37.252;2023-08-21T15:09:32;2.85;;;1.70;;
46110;SDS011;31849;55.992;37.252;2023-08-21T15:14:39;2.67;;;1.40;;
46110;SDS011;31849;55.992;37.252;2023-08-21T15:19:43;6.22;;;1.60;;
46110;SDS011;31849;55.992;37.252;2023-08-21T15:24:48;3.75;;;1.85;;
46110;SDS011;31849;55.992;37.252;2023-08-21T15:29:51;3.53;;;1.70;;
46110;SDS011;31849;55.992;37.252;2023-08-21T15:34:55;2.97;;;1.90;;
46110;SDS011;31849;55.992;37.252;2023-08-21T15:40:00;4.70;;;1.85;;
46110;SDS011;31849;55.992;37.252;2023-08-21T15:45:05;4.05;;;1.90;;
46110;SDS011;31849;55.992;37.252;2023-08-21T15:50:09;5.10;;;2.17;;
46110;SDS011;31849;55.992;37.252;2023-08-21T15:55:14;3.35;;;1.90;;
46110;SDS011;31849;55.992;37.252;2023-08-21T16:00:18;4.07;;;2.38;;
46110;SDS011;31849;55.992;37.252;2023-08-21T16:05:26;6.43;;;1.90;;
46110;SDS011;31849;55.992;37.252;2023-08-21T16:10:31;5.25;;;2.22;;
46110;SDS011;31849;55.992;37.252;2023-08-21T16:15:35;4.57;;;2.30;;
46110;SDS011;31849;55.992;37.252;2023-08-21T16:20:38;4.50;;;2.30;;
46110;SDS011;31849;55.992;37.252;2023-08-21T16:25:44;4.70;;;2.53;;
46110;SDS011;31849;55.992;37.252;2023-08-21T16:30:47;4.95;;;2.20;;
46110;SDS011;31849;55.992;37.252;2023-08-21T16:35:51;3.78;;;2.00;;
46110;SDS011;31849;55.992;37.252;2023-08-21T16:40:56;4.70;;;2.10;;
46110;SDS011;31849;55.992;37.252;2023-08-21T16:45:59;5.78;;;2.58;;
46110;SDS011;31849;55.992;37.252;2023-08-21T16:51:03;4.70;;;2.22;;
46110;SDS011;31849;55.992;37.252;2023-08-21T16:56:08;5.47;;;2.47;;
46110;SDS011;31849;55.992;37.252;2023-08-21T17:01:12;7.18;;;2.95;;
46110;SDS011;31849;55.992;37.252;2023-08-21T17:06:15;8.83;;;3.20;;
46110;SDS011;31849;55.992;37.252;2023-08-21T17:11:20;10.53;;;3.20;;
46110;SDS011;31849;55.992;37.252;2023-08-21T17:16:24;5.93;;;3.22;;
46110;SDS011;31849;55.992;37.252;2023-08-21T17:21:28;11.07;;;5.35;;
46110;SDS011;31849;55.992;37.252;2023-08-21T17:26:33;10.03;;;6.03;;
46110;SDS011;31849;55.992;37.252;2023-08-21T17:31:37;6.00;;;3.92;;
46110;SDS011;31849;55.992;37.252;2023-08-21T17:36:41;10.33;;;3.60;;
46110;SDS011;31849;55.992;37.252;2023-08-21T17:46:49;8.90;;;4.65;;
46110;SDS011;31849;55.992;37.252;2023-08-21T17:51:53;12.67;;;4.30;;
46110;SDS011;31849;55.992;37.252;2023-08-21T17:56:58;7.13;;;4.80;;
46110;SDS011;31849;55.992;37.252;2023-08-21T18:02:01;14.73;;;5.32;;
46110;SDS011;31849;55.992;37.252;2023-08-21T18:07:05;11.05;;;4.93;;
46110;SDS011;31849;55.992;37.252;2023-08-21T18:12:11;12.43;;;4.97;;
46110;SDS011;31849;55.992;37.252;2023-08-21T18:17:14;12.15;;;5.18;;
46110;SDS011;31849;55.992;37.252;2023-08-21T18:22:18;12.27;;;5.23;;
46110;SDS011;31849;55.992;37.252;2023-08-21T18:27:23;11.43;;;5.37;;
46110;SDS011;31849;55.992;37.252;2023-08-21T18:32:27;9.23;;;4.95;;
46110;SDS011;31849;55.992;37.252;2023-08-21T18:37:31;12.05;;;4.90;;
46110;SDS011;31849;55.992;37.252;2023-08-21T18:42:36;11.60;;;5.10;;
46110;SDS011;31849;55.992;37.252;2023-08-21T18:47:39;14.02;;;5.22;;
46110;SDS011;31849;55.992;37.252;2023-08-21T18:52:43;10.82;;;4.85;;
46110;SDS011;31849;55.992;37.252;2023-08-21T18:57:50;11.23;;;5.10;;
46110;SDS011;31849;55.992;37.252;2023-08-21T19:02:54;11.93;;;4.82;;
46110;SDS011;31849;55.992;37.252;2023-08-21T19:07:58;12.25;;;5.10;;
46110;SDS011;31849;55.992;37.252;2023-08-21T19:13:03;11.70;;;5.10;;
46110;SDS011;31849;55.992;37.252;2023-08-21T19:18:08;13.27;;;4.78;;
46110;SDS011;31849;55.992;37.252;2023-08-21T19:23:12;9.50;;;4.80;;
46110;SDS011;31849;55.992;37.252;2023-08-21T19:28:17;14.13;;;5.53;;
46110;SDS011;31849;55.992;37.252;2023-08-21T19:33:21;9.32;;;4.50;;
46110;SDS011;31849;55.992;37.252;2023-08-21T19:38:27;9.38;;;4.60;;
46110;SDS011;31849;55.992;37.252;2023-08-21T19:43:32;10.03;;;5.27;;
46110;SDS011;31849;55.992;37.252;2023-08-21T19:48:35;13.35;;;3.92;;
46110;SDS011;31849;55.992;37.252;2023-08-21T19:53:38;9.48;;;4.47;;
46110;SDS011;31849;55.992;37.252;2023-08-21T19:58:43;8.10;;;3.95;;
46110;SDS011;31849;55.992;37.252;2023-08-21T20:03:47;6.00;;;4.18;;
46110;SDS011;31849;55.992;37.252;2023-08-21T20:08:51;12.67;;;5.10;;
46110;SDS011;31849;55.992;37.252;2023-08-21T20:13:56;9.32;;;4.40;;
46110;SDS011;31849;55.992;37.252;2023-08-21T20:18:59;10.23;;;4.40;;
46110;SDS011;31849;55.992;37.252;2023-08-21T20:24:04;11.88;;;4.20;;
46110;SDS011;31849;55.992;37.252;2023-08-21T20:29:10;13.32;;;4.78;;
46110;SDS011;31849;55.992;37.252;2023-08-21T20:34:14;10.95;;;4.57;;
46110;SDS011;31849;55.992;37.252;2023-08-21T20:39:18;10.02;;;4.75;;
46110;SDS011;31849;55.992;37.252;2023-08-21T20:44:26;8.43;;;4.53;;
46110;SDS011;31849;55.992;37.252;2023-08-21T20:49:30;12.05;;;4.50;;
46110;SDS011;31849;55.992;37.252;2023-08-21T20:54:36;7.95;;;4.07;;
46110;SDS011;31849;55.992;37.252;2023-08-21T20:59:41;14.37;;;4.70;;
46110;SDS011;31849;55.992;37.252;2023-08-21T21:04:45;13.38;;;5.10;;
46110;SDS011;31849;55.992;37.252;2023-08-21T21:09:48;10.97;;;4.63;;
46110;SDS011;31849;55.992;37.252;2023-08-21T21:14:54;11.77;;;4.53;;
46110;SDS011;31849;55.992;37.252;2023-08-21T21:19:58;13.50;;;6.47;;
46110;SDS011;31849;55.992;37.252;2023-08-21T21:25:03;23.05;;;12.20;;
46110;SDS011;31849;55.992;37.252;2023-08-21T21:30:09;14.13;;;8.80;;
46110;SDS011;31849;55.992;37.252;2023-08-21T21:35:13;9.98;;;5.30;;
46110;SDS011;31849;55.992;37.252;2023-08-21T21:40:16;9.03;;;5.33;;
46110;SDS011;31849;55.992;37.252;2023-08-21T21:45:21;15.65;;;6.28;;
46110;SDS011;31849;55.992;37.252;2023-08-21T21:50:25;10.80;;;5.53;;
46110;SDS011;31849;55.992;37.252;2023-08-21T21:55:29;9.67;;;4.50;;
46110;SDS011;31849;55.992;37.252;2023-08-21T22:00:34;6.85;;;4.25;;
46110;SDS011;31849;55.992;37.252;2023-08-21T22:05:38;9.90;;;4.40;;
46110;SDS011;31849;55.992;37.252;2023-08-21T22:10:41;8.07;;;4.20;;
46110;SDS011;31849;55.992;37.252;2023-08-21T22:15:46;9.05;;;4.28;;
46110;SDS011;31849;55.992;37.252;2023-08-21T22:20:50;10.18;;;4.03;;
46110;SDS011;31849;55.992;37.252;2023-08-21T22:25:53;10.88;;;4.43;;
46110;SDS011;31849;55.992;37.252;2023-08-21T22:30:58;9.40;;;4.05;;
46110;SDS011;31849;55.992;37.252;2023-08-21T22:36:02;7.03;;;4.40;;
46110;SDS011;31849;55.992;37.252;2023-08-21T22:41:06;9.00;;;4.37;;
46110;SDS011;31849;55.992;37.252;2023-08-21T22:46:11;9.37;;;4.33;;
46110;SDS011;31849;55.992;37.252;2023-08-21T22:51:14;11.15;;;4.15;;
46110;SDS011;31849;55.992;37.252;2023-08-21T22:56:18;8.80;;;4.33;;
46110;SDS011;31849;55.992;37.252;2023-08-21T23:01:23;7.38;;;4.20;;
46110;SDS011;31849;55.992;37.252;2023-08-21T23:06:27;11.43;;;4.85;;
46110;SDS011;31849;55.992;37.252;2023-08-21T23:11:31;11.50;;;4.47;;
46110;SDS011;31849;55.992;37.252;2023-08-21T23:16:36;9.40;;;4.30;;
46110;SDS011;31849;55.992;37.252;2023-08-21T23:21:39;11.82;;;3.88;;
46110;SDS011;31849;55.992;37.252;2023-08-21T23:26:42;13.10;;;4.68;;
46110;SDS011;31849;55.992;37.252;2023-08-21T23:31:47;12.25;;;4.35;;
46110;SDS011;31849;55.992;37.252;2023-08-21T23:36:51;8.63;;;4.22;;
46110;SDS011;31849;55.992;37.252;2023-08-21T23:41:54;7.05;;;3.92;;
46110;SDS011;31849;55.992;37.252;2023-08-21T23:47:01;8.30;;;3.90;;
46110;SDS011;31849;55.992;37.252;2023-08-21T23:52:05;9.75;;;5.07;;
46110;SDS011;31849;55.992;37.252;2023-08-21T23:57:08;9.50;;;4.00;;
